Time;durP1;ratioP1;P1;durP2;ratioP2;P2;SDS_P1;SDS_P2;PMS_P1;PMS_P2;Temp;Humidity;BMP_temperature;BMP_pressure;BME280_temperature;BME280_humidity;BME280_pressure;Samples;Min_cycle;Max_cycle;Signal;HPM_P1;HPM_P2
2022/08/25 00:00:52;;;;;;;1.98;1.30;;;;;;;;;;8346054;28;20047;-57
2022/08/25 00:04:52;;;;;;;1.45;1.35;;;;;;;;;;8354075;28;20024;-58
2022/08/25 00:08:52;;;;;;;2.00;1.20;;;;;;;;;;8355400;28;20020;-57
2022/08/25 00:12:53;;;;;;;1.70;1.23;;;;;;;;;;8354419;28;20043;-57
2022/08/25 00:16:53;;;;;;;1.73;1.40;;;;;;;;;;8352461;28;20318;-57
2022/08/25 00:20:54;;;;;;;3.15;1.40;;;;;;;;;;8351845;28;20040;-58
2022/08/25 00:24:54;;;;;;;1.45;1.35;;;;;;;;;;8353893;28;20020;-58
2022/08/25 00:28:54;;;;;;;1.60;1.27;;;;;;;;;;8353272;28;20547;-58
2022/08/25 00:32:54;;;;;;;1.67;1.40;;;;;;;;;;8351618;28;20037;-57
2022/08/25 00:36:54;;;;;;;1.50;1.40;;;;;;;;;;8354086;28;20119;-58
2022/08/25 00:41:07;;;;;;;2.40;1.35;;;;;;;;;;8353201;28;20387;-58
2022/08/25 00:45:08;;;;;;;2.20;1.30;;;;;;;;;;8351780;28;20038;-57
2022/08/25 00:49:11;;;;;;;2.33;1.70;;;;;;;;;;8352957;28;20101;-57
2022/08/25 00:53:12;;;;;;;1.85;1.40;;;;;;;;;;8351315;28;20036;-57
2022/08/25 00:57:14;;;;;;;2.90;1.60;;;;;;;;;;8353254;28;20290;-58
2022/08/25 01:01:14;;;;;;;8.82;1.40;;;;;;;;;;8350655;28;20263;-57
2022/08/25 01:05:15;;;;;;;1.90;1.60;;;;;;;;;;8351954;28;20086;-57
2022/08/25 01:09:16;;;;;;;2.63;1.40;;;;;;;;;;8351541;28;20024;-57
2022/08/25 01:13:22;;;;;;;1.65;1.55;;;;;;;;;;8348407;28;20331;-57
2022/08/25 01:17:26;;;;;;;4.43;1.50;;;;;;;;;;8349588;28;20040;-57
2022/08/25 01:21:28;;;;;;;2.40;1.70;;;;;;;;;;8350673;28;20031;-57
2022/08/25 01:25:43;;;;;;;1.85;1.60;;;;;;;;;;8349463;28;20119;-58
2022/08/25 01:29:43;;;;;;;2.15;1.70;;;;;;;;;;8351969;28;20268;-57
2022/08/25 01:33:43;;;;;;;1.60;1.50;;;;;;;;;;8351061;28;20063;-57
2022/08/25 01:37:44;;;;;;;1.70;1.60;;;;;;;;;;8349185;28;20032;-58
2022/08/25 01:41:47;;;;;;;1.58;1.45;;;;;;;;;;8352185;28;20082;-57
2022/08/25 01:45:47;;;;;;;1.50;1.40;;;;;;;;;;8349923;28;20695;-57
2022/08/25 01:49:48;;;;;;;3.25;1.58;;;;;;;;;;8349734;28;20039;-57
2022/08/25 01:53:49;;;;;;;3.00;1.80;;;;;;;;;;8349179;28;20024;-58
2022/08/25 01:57:49;;;;;;;1.70;1.60;;;;;;;;;;8350336;28;20028;-58
2022/08/25 02:01:50;;;;;;;1.58;1.42;;;;;;;;;;8347682;28;20540;-58
2022/08/25 02:05:52;;;;;;;2.75;1.70;;;;;;;;;;8350919;28;20035;-58
2022/08/25 02:09:52;;;;;;;3.22;1.58;;;;;;;;;;8349320;28;20120;-57
2022/08/25 02:13:53;;;;;;;3.22;1.60;;;;;;;;;;8350264;28;20447;-57
2022/08/25 02:17:53;;;;;;;1.80;1.70;;;;;;;;;;8346135;28;20073;-57
2022/08/25 02:21:53;;;;;;;3.97;1.70;;;;;;;;;;8348674;28;20135;-57
2022/08/25 02:25:55;;;;;;;1.90;1.77;;;;;;;;;;8351306;28;20024;-57
2022/08/25 02:29:56;;;;;;;2.83;1.92;;;;;;;;;;8348971;28;20460;-57
2022/08/25 02:33:56;;;;;;;2.35;1.50;;;;;;;;;;8349090;28;20037;-57
2022/08/25 02:37:56;;;;;;;3.33;1.70;;;;;;;;;;8349605;28;20112;-57
2022/08/25 02:41:58;;;;;;;1.83;1.70;;;;;;;;;;8350430;28;20271;-57
2022/08/25 02:45:59;;;;;;;3.78;1.70;;;;;;;;;;8347531;28;20075;-57
2022/08/25 02:49:59;;;;;;;2.67;1.70;;;;;;;;;;8350899;28;20115;-57
2022/08/25 02:54:01;;;;;;;1.70;1.60;;;;;;;;;;8349027;28;20122;-57
2022/08/25 02:58:01;;;;;;;2.05;1.73;;;;;;;;;;8349639;28;20482;-57
2022/08/25 03:02:01;;;;;;;3.35;1.90;;;;;;;;;;8348987;28;20524;-57
2022/08/25 03:06:01;;;;;;;1.83;1.73;;;;;;;;;;8349723;28;20028;-57
2022/08/25 03:10:05;;;;;;;2.42;1.75;;;;;;;;;;8353412;28;20025;-57
2022/08/25 03:14:06;;;;;;;2.90;1.63;;;;;;;;;;8353770;28;20028;-57
2022/08/25 03:18:07;;;;;;;2.03;1.83;;;;;;;;;;8350148;28;20035;-57
2022/08/25 03:22:07;;;;;;;4.20;1.88;;;;;;;;;;8352202;28;20020;-57
2022/08/25 03:30:26;;;;;;;2.10;1.90;;;;;;;;;;8348521;28;20114;-58
2022/08/25 03:34:28;;;;;;;5.18;2.10;;;;;;;;;;8350409;28;20029;-57
2022/08/25 03:38:28;;;;;;;3.90;2.30;;;;;;;;;;8353821;28;20564;-57
2022/08/25 03:42:28;;;;;;;2.22;2.00;;;;;;;;;;8360790;28;20107;-57
2022/08/25 03:46:30;;;;;;;4.18;2.20;;;;;;;;;;8357700;28;20089;-57
2022/08/25 03:50:30;;;;;;;2.90;1.95;;;;;;;;;;8358585;28;20028;-57
2022/08/25 03:54:31;;;;;;;2.22;1.90;;;;;;;;;;8360122;28;20883;-57
2022/08/25 03:58:32;;;;;;;1.83;1.67;;;;;;;;;;8357091;28;20028;-58
2022/08/25 04:02:32;;;;;;;2.75;1.95;;;;;;;;;;8354743;28;20036;-57
2022/08/25 04:06:32;;;;;;;2.17;1.98;;;;;;;;;;8357230;28;20114;-58
2022/08/25 04:10:33;;;;;;;2.38;2.10;;;;;;;;;;8358246;28;20047;-57
2022/08/25 04:14:33;;;;;;;4.07;2.37;;;;;;;;;;8359865;28;20163;-59
2022/08/25 04:18:33;;;;;;;4.17;2.27;;;;;;;;;;8358344;28;20615;-57
2022/08/25 04:22:33;;;;;;;3.50;2.40;;;;;;;;;;8357753;28;20413;-57
2022/08/25 04:26:36;;;;;;;3.67;2.00;;;;;;;;;;8358350;28;20378;-57
2022/08/25 04:30:47;;;;;;;2.47;2.28;;;;;;;;;;8355764;28;20037;-57
2022/08/25 04:34:48;;;;;;;4.30;2.17;;;;;;;;;;8357535;28;20094;-57
2022/08/25 04:38:49;;;;;;;3.80;2.70;;;;;;;;;;8359519;28;20024;-57
2022/08/25 04:42:49;;;;;;;2.67;2.20;;;;;;;;;;8360482;28;20024;-57
2022/08/25 04:46:49;;;;;;;6.10;2.42;;;;;;;;;;8355022;28;20036;-57
2022/08/25 04:50:50;;;;;;;5.72;2.63;;;;;;;;;;8357174;28;20392;-57
2022/08/25 04:54:50;;;;;;;3.47;2.22;;;;;;;;;;8357784;28;20067;-57
2022/08/25 04:58:51;;;;;;;8.83;2.50;;;;;;;;;;8356543;28;20043;-57
2022/08/25 05:02:52;;;;;;;5.05;2.30;;;;;;;;;;8355947;28;20306;-57
2022/08/25 05:06:52;;;;;;;4.63;2.53;;;;;;;;;;8357371;28;20118;-57
2022/08/25 05:10:55;;;;;;;3.95;2.30;;;;;;;;;;8357548;28;20040;-57
2022/08/25 05:15:48;;;;;;;4.35;2.30;;;;;;;;;;8356753;28;20024;-57
2022/08/25 05:19:16;;;;;;;4.63;2.40;;;;;;;;;;8355684;28;20036;-57
2022/08/25 05:23:16;;;;;;;3.95;2.53;;;;;;;;;;8355423;28;20349;-58
2022/08/25 05:27:16;;;;;;;5.80;2.30;;;;;;;;;;8355406;28;20121;-57
2022/08/25 05:31:17;;;;;;;5.97;3.00;;;;;;;;;;8352688;28;20456;-57
2022/08/25 05:35:19;;;;;;;8.70;2.60;;;;;;;;;;8356757;28;20485;-57
2022/08/25 05:39:20;;;;;;;5.10;2.65;;;;;;;;;;8356398;28;20024;-57
2022/08/25 05:43:20;;;;;;;6.40;2.70;;;;;;;;;;8356882;28;20093;-57
2022/08/25 05:47:20;;;;;;;3.25;2.30;;;;;;;;;;8349915;28;20040;-57
2022/08/25 05:51:20;;;;;;;3.42;2.33;;;;;;;;;;8350070;28;20021;-57
2022/08/25 05:55:21;;;;;;;8.73;2.50;;;;;;;;;;8351062;28;20020;-58
2022/08/25 05:59:21;;;;;;;7.43;2.65;;;;;;;;;;8349362;28;20052;-58
2022/08/25 06:03:21;;;;;;;7.00;2.70;;;;;;;;;;8348568;28;20047;-57
2022/08/25 06:07:21;;;;;;;5.43;2.70;;;;;;;;;;8350208;28;20028;-59
2022/08/25 06:11:22;;;;;;;3.78;2.50;;;;;;;;;;8348471;28;20400;-58
2022/08/25 06:15:23;;;;;;;4.50;2.53;;;;;;;;;;8349763;28;20048;-58
2022/08/25 06:19:23;;;;;;;3.88;2.63;;;;;;;;;;8350345;28;20032;-58
2022/08/25 06:23:23;;;;;;;3.35;3.00;;;;;;;;;;8359439;28;20097;-58
2022/08/25 06:27:23;;;;;;;9.35;3.38;;;;;;;;;;8363570;28;20541;-58
2022/08/25 06:31:24;;;;;;;3.28;3.00;;;;;;;;;;8359216;28;20035;-58
2022/08/25 06:35:24;;;;;;;8.63;3.13;;;;;;;;;;8360605;28;20035;-58
2022/08/25 06:39:24;;;;;;;7.10;2.92;;;;;;;;;;8360945;28;20030;-59
2022/08/25 06:43:24;;;;;;;7.77;3.40;;;;;;;;;;8356305;28;20016;-58
2022/08/25 06:47:24;;;;;;;3.05;2.75;;;;;;;;;;8353367;28;20616;-58
2022/08/25 06:51:25;;;;;;;3.10;2.80;;;;;;;;;;8352488;28;20482;-58
2022/08/25 06:55:25;;;;;;;4.30;3.42;;;;;;;;;;8351281;28;20024;-60
2022/08/25 06:59:26;;;;;;;4.40;3.20;;;;;;;;;;8360231;28;20031;-59
2022/08/25 07:03:27;;;;;;;3.50;3.20;;;;;;;;;;8348567;28;20037;-59
2022/08/25 07:07:27;;;;;;;5.28;3.30;;;;;;;;;;8350241;28;20032;-59
2022/08/25 07:11:28;;;;;;;5.65;3.10;;;;;;;;;;8350227;28;20020;-58
2022/08/25 07:15:28;;;;;;;5.85;3.10;;;;;;;;;;8349871;28;20577;-59
2022/08/25 07:19:28;;;;;;;4.13;3.10;;;;;;;;;;8350425;28;20326;-60
2022/08/25 07:23:29;;;;;;;3.33;2.97;;;;;;;;;;8349507;28;20052;-59
2022/08/25 07:27:29;;;;;;;5.13;3.40;;;;;;;;;;8349709;28;20028;-58
2022/08/25 07:31:30;;;;;;;9.40;3.20;;;;;;;;;;8346660;28;20479;-59
2022/08/25 07:35:31;;;;;;;8.20;3.00;;;;;;;;;;8349755;28;20510;-59
2022/08/25 07:39:31;;;;;;;3.30;3.03;;;;;;;;;;8348675;28;20523;-59
2022/08/25 07:43:31;;;;;;;5.03;3.10;;;;;;;;;;8351317;28;20586;-58
2022/08/25 07:47:32;;;;;;;4.72;3.00;;;;;;;;;;8348633;28;20498;-59
2022/08/25 07:51:32;;;;;;;5.73;2.90;;;;;;;;;;8349689;28;20044;-59
2022/08/25 07:55:35;;;;;;;4.03;3.10;;;;;;;;;;8351229;28;20021;-59
2022/08/25 07:59:39;;;;;;;3.65;3.10;;;;;;;;;;8350673;28;20055;-59
2022/08/25 08:03:40;;;;;;;5.30;3.42;;;;;;;;;;8351606;28;20029;-59
2022/08/25 08:07:40;;;;;;;3.47;3.07;;;;;;;;;;8350767;28;20139;-59
2022/08/25 08:11:43;;;;;;;4.53;3.17;;;;;;;;;;8350162;28;20072;-59
2022/08/25 08:15:43;;;;;;;4.03;3.00;;;;;;;;;;8353584;28;20041;-59
2022/08/25 08:19:44;;;;;;;3.37;3.10;;;;;;;;;;8352662;28;20047;-59
2022/08/25 08:23:44;;;;;;;4.77;3.10;;;;;;;;;;8352801;28;20028;-59
2022/08/25 08:27:45;;;;;;;3.73;2.97;;;;;;;;;;8362462;28;20028;-59
2022/08/25 08:31:46;;;;;;;3.95;3.30;;;;;;;;;;8360061;28;20071;-60
2022/08/25 08:35:46;;;;;;;3.20;3.00;;;;;;;;;;8366032;28;20424;-59
2022/08/25 08:39:46;;;;;;;3.93;3.27;;;;;;;;;;8364083;28;20020;-59
2022/08/25 08:43:50;;;;;;;3.30;3.00;;;;;;;;;;8359370;28;20086;-59
2022/08/25 08:48:05;;;;;;;3.95;2.80;;;;;;;;;;8363055;28;20051;-59
2022/08/25 08:52:06;;;;;;;4.03;3.10;;;;;;;;;;8367905;28;20058;-59
2022/08/25 08:56:09;;;;;;;4.78;3.17;;;;;;;;;;8367588;28;20024;-60
2022/08/25 09:00:09;;;;;;;5.93;2.78;;;;;;;;;;8357371;28;20580;-60
2022/08/25 09:04:14;;;;;;;3.23;2.80;;;;;;;;;;8357702;28;20028;-59
2022/08/25 09:08:17;;;;;;;3.17;2.90;;;;;;;;;;8358257;28;20032;-59
2022/08/25 09:12:32;;;;;;;3.72;2.85;;;;;;;;;;8360016;28;20024;-59
2022/08/25 09:16:54;;;;;;;3.88;3.05;;;;;;;;;;8355562;28;20041;-59
2022/08/25 09:21:10;;;;;;;3.67;2.85;;;;;;;;;;8348457;28;20036;-59
2022/08/25 09:25:11;;;;;;;4.72;3.20;;;;;;;;;;8352059;28;20025;-59
2022/08/25 09:29:18;;;;;;;4.15;3.10;;;;;;;;;;8349171;28;20143;-59
2022/08/25 09:33:20;;;;;;;5.95;2.97;;;;;;;;;;8349108;28;20033;-59
2022/08/25 09:37:21;;;;;;;2.70;2.50;;;;;;;;;;8354107;28;20610;-59
2022/08/25 09:41:39;;;;;;;3.38;2.45;;;;;;;;;;8351070;28;20021;-59
2022/08/25 09:45:42;;;;;;;2.85;2.65;;;;;;;;;;8352200;28;20226;-59
2022/08/25 09:49:42;;;;;;;3.58;2.95;;;;;;;;;;8351393;28;20047;-59
2022/08/25 09:53:47;;;;;;;4.97;2.60;;;;;;;;;;8350635;28;20363;-59
2022/08/25 09:57:48;;;;;;;3.38;2.70;;;;;;;;;;8349201;28;20032;-59
2022/08/25 10:01:49;;;;;;;;;;;;;;;;;;8352229;28;20036;-59
2022/08/25 10:05:56;;;;;;;3.25;2.28;;;;;;;;;;8356215;28;19912;-59
2022/08/25 10:09:58;;;;;;;5.45;2.70;;;;;;;;;;8360428;28;20060;-59
2022/08/25 10:14:04;;;;;;;3.90;2.65;;;;;;;;;;8354736;28;20440;-59
2022/08/25 10:18:13;;;;;;;3.40;2.55;;;;;;;;;;8358490;28;20770;-59
2022/08/25 10:22:20;;;;;;;4.90;2.70;;;;;;;;;;8353107;28;20031;-60
2022/08/25 10:26:26;;;;;;;4.60;2.33;;;;;;;;;;8355256;28;20455;-59
2022/08/25 10:30:26;;;;;;;4.35;2.53;;;;;;;;;;8349262;28;20381;-60
2022/08/25 10:34:30;;;;;;;3.08;2.42;;;;;;;;;;8352840;28;20463;-59
2022/08/25 10:38:42;;;;;;;3.83;2.60;;;;;;;;;;8354128;28;20373;-59
2022/08/25 10:43:14;;;;;;;3.47;2.90;;;;;;;;;;8352456;28;20439;-59
2022/08/25 10:47:24;;;;;;;3.75;2.80;;;;;;;;;;8334508;28;20025;-60
2022/08/25 10:51:27;;;;;;;4.65;2.90;;;;;;;;;;8351800;28;20022;-59
2022/08/25 10:55:38;;;;;;;3.17;2.88;;;;;;;;;;8359015;28;20017;-59
2022/08/25 10:59:51;;;;;;;4.55;2.80;;;;;;;;;;8360315;28;20075;-59
2022/08/25 11:03:54;;;;;;;3.35;2.80;;;;;;;;;;8354511;28;20036;-59
2022/08/25 11:08:03;;;;;;;3.08;2.63;;;;;;;;;;8361851;28;20370;-59
2022/08/25 11:12:15;;;;;;;3.42;3.00;;;;;;;;;;8358618;28;20465;-60
2022/08/25 11:16:30;;;;;;;4.38;2.80;;;;;;;;;;8363038;28;20087;-60
2022/08/25 11:20:32;;;;;;;5.45;3.10;;;;;;;;;;8348341;28;20024;-59
2022/08/25 11:24:32;;;;;;;;;;;;;;;;;;8359952;28;20028;-60
2022/08/25 11:28:56;;;;;;;3.30;2.97;;;;;;;;;;8362755;28;20007;-60
2022/08/25 11:32:57;;;;;;;3.42;3.13;;;;;;;;;;8363937;28;21516;-59
2022/08/25 11:36:59;;;;;;;4.27;3.00;;;;;;;;;;8362692;28;20036;-59
2022/08/25 11:41:09;;;;;;;5.00;3.17;;;;;;;;;;8363189;28;20025;-59
2022/08/25 11:45:29;;;;;;;3.30;2.83;;;;;;;;;;8364422;28;20035;-60
2022/08/25 11:49:47;;;;;;;4.07;3.00;;;;;;;;;;8362766;28;20104;-59
2022/08/25 11:53:48;;;;;;;3.40;2.78;;;;;;;;;;8362370;28;20035;-60
2022/08/25 11:57:49;;;;;;;3.33;3.00;;;;;;;;;;8358920;28;20059;-60
2022/08/25 12:01:53;;;;;;;3.08;2.88;;;;;;;;;;8363758;28;20127;-59
2022/08/25 12:06:13;;;;;;;3.50;2.60;;;;;;;;;;8369842;28;20217;-60
2022/08/25 12:10:20;;;;;;;2.80;2.60;;;;;;;;;;8360991;28;20510;-59
2022/08/25 12:14:21;;;;;;;3.40;3.10;;;;;;;;;;8363138;28;20032;-59
2022/08/25 12:18:21;;;;;;;3.83;2.90;;;;;;;;;;8365604;28;20087;-59
2022/08/25 12:22:21;;;;;;;3.15;2.70;;;;;;;;;;8361479;28;20078;-60
2022/08/25 12:26:41;;;;;;;4.22;3.25;;;;;;;;;;8358754;28;20036;-60
2022/08/25 12:30:42;;;;;;;4.53;3.13;;;;;;;;;;8367736;28;20508;-61
2022/08/25 12:34:45;;;;;;;4.22;2.92;;;;;;;;;;8360300;28;20024;-60
2022/08/25 12:38:49;;;;;;;5.22;2.85;;;;;;;;;;8355254;28;20020;-59
2022/08/25 12:42:59;;;;;;;3.20;2.90;;;;;;;;;;8357138;28;20425;-60
2022/08/25 12:47:26;;;;;;;6.38;2.90;;;;;;;;;;8353577;28;20092;-60
2022/08/25 12:51:27;;;;;;;3.83;2.90;;;;;;;;;;8353711;28;20039;-60
2022/08/25 12:55:27;;;;;;;3.00;2.70;;;;;;;;;;8354479;28;20012;-60
2022/08/25 12:59:37;;;;;;;4.90;2.60;;;;;;;;;;8359280;28;20053;-60
2022/08/25 13:03:59;;;;;;;3.08;2.70;;;;;;;;;;8356595;28;20021;-60
2022/08/25 13:08:18;;;;;;;7.53;2.92;;;;;;;;;;8368042;28;20097;-59
2022/08/25 13:12:23;;;;;;;4.38;2.60;;;;;;;;;;8357079;28;20024;-60
2022/08/25 13:16:27;;;;;;;3.78;2.60;;;;;;;;;;8361248;28;20070;-60
2022/08/25 13:20:28;;;;;;;3.17;2.45;;;;;;;;;;8356462;28;20055;-60
2022/08/25 13:24:34;;;;;;;3.90;2.80;;;;;;;;;;8355972;28;20017;-60
2022/08/25 13:28:36;;;;;;;4.28;2.50;;;;;;;;;;8353538;28;20020;-60
2022/08/25 13:32:37;;;;;;;6.18;2.85;;;;;;;;;;8352003;28;20107;-58
2022/08/25 13:41:05;;;;;;;6.43;2.60;;;;;;;;;;8350928;28;20325;-61
2022/08/25 13:45:06;;;;;;;4.33;2.27;;;;;;;;;;8350659;28;20107;-60
2022/08/25 13:49:07;;;;;;;2.70;2.50;;;;;;;;;;8351545;28;20043;-60
2022/08/25 13:53:20;;;;;;;7.15;2.33;;;;;;;;;;8350549;28;20235;-60
2022/08/25 13:57:21;;;;;;;2.92;2.60;;;;;;;;;;8352838;28;20031;-60
2022/08/25 14:01:27;;;;;;;3.05;2.75;;;;;;;;;;8351079;28;20364;-60
2022/08/25 14:05:31;;;;;;;6.10;2.70;;;;;;;;;;8352074;28;20699;-60
2022/08/25 14:09:37;;;;;;;4.65;2.58;;;;;;;;;;8354462;28;20013;-60
2022/08/25 14:13:38;;;;;;;2.85;2.40;;;;;;;;;;8354215;28;20040;-59
2022/08/25 14:17:41;;;;;;;2.88;2.58;;;;;;;;;;8350290;28;20119;-60
2022/08/25 14:21:41;;;;;;;3.85;2.50;;;;;;;;;;8350489;28;20036;-59
2022/08/25 14:25:41;;;;;;;3.67;2.80;;;;;;;;;;8350780;28;20718;-60
2022/08/25 14:29:42;;;;;;;6.63;2.58;;;;;;;;;;8352046;28;20451;-60
2022/08/25 14:33:51;;;;;;;2.88;2.30;;;;;;;;;;8352599;28;20600;-60
2022/08/25 14:37:52;;;;;;;2.55;2.30;;;;;;;;;;8349559;28;20302;-60
2022/08/25 14:41:52;;;;;;;4.63;2.53;;;;;;;;;;8353062;28;20323;-59
2022/08/25 14:45:53;;;;;;;3.53;2.42;;;;;;;;;;8351708;28;20549;-59
2022/08/25 14:49:53;;;;;;;4.32;2.53;;;;;;;;;;8353069;28;20603;-59
2022/08/25 14:53:55;;;;;;;4.97;2.42;;;;;;;;;;8354578;28;20027;-60
2022/08/25 14:57:56;;;;;;;4.45;2.60;;;;;;;;;;8352572;28;20021;-59
2022/08/25 15:01:56;;;;;;;5.17;2.50;;;;;;;;;;8353681;28;20036;-60
2022/08/25 15:05:57;;;;;;;2.63;2.42;;;;;;;;;;8359768;28;20033;-60
2022/08/25 15:09:57;;;;;;;3.10;2.50;;;;;;;;;;8362469;28;20341;-59
2022/08/25 15:14:00;;;;;;;4.23;2.70;;;;;;;;;;8363804;28;20702;-60
2022/08/25 15:18:00;;;;;;;2.80;2.60;;;;;;;;;;8364550;28;20848;-60
2022/08/25 15:22:02;;;;;;;3.00;2.70;;;;;;;;;;8360533;28;20025;-59
2022/08/25 15:26:02;;;;;;;3.55;2.42;;;;;;;;;;8359188;28;20023;-61
2022/08/25 15:30:04;;;;;;;3.05;2.60;;;;;;;;;;8354097;28;20056;-60
2022/08/25 15:34:05;;;;;;;4.28;2.50;;;;;;;;;;8355329;28;20028;-58
2022/08/25 15:38:05;;;;;;;5.53;2.53;;;;;;;;;;8358149;28;20043;-59
2022/08/25 15:42:06;;;;;;;2.63;2.43;;;;;;;;;;8356762;28;20017;-59
2022/08/25 15:46:06;;;;;;;2.73;2.53;;;;;;;;;;8355908;28;20269;-59
2022/08/25 15:50:08;;;;;;;2.63;2.40;;;;;;;;;;8356470;28;20371;-59
2022/08/25 15:54:08;;;;;;;3.90;2.60;;;;;;;;;;8356067;28;20468;-59
2022/08/25 15:58:08;;;;;;;3.20;2.55;;;;;;;;;;8356573;28;20466;-59
2022/08/25 16:02:08;;;;;;;3.30;2.33;;;;;;;;;;8354657;28;20071;-59
2022/08/25 16:06:09;;;;;;;2.92;2.25;;;;;;;;;;8355929;28;20388;-59
2022/08/25 16:10:09;;;;;;;4.20;2.60;;;;;;;;;;8355916;28;20105;-59
2022/08/25 16:14:10;;;;;;;2.63;2.30;;;;;;;;;;8358109;28;20168;-59
2022/08/25 16:18:10;;;;;;;2.60;2.40;;;;;;;;;;8355551;28;20561;-59
2022/08/25 16:22:10;;;;;;;3.55;2.80;;;;;;;;;;8355256;28;20242;-58
2022/08/25 16:26:11;;;;;;;5.03;2.90;;;;;;;;;;8356280;28;20050;-59
2022/08/25 16:30:11;;;;;;;6.15;2.50;;;;;;;;;;8355122;28;20036;-60
2022/08/25 16:34:12;;;;;;;3.65;2.70;;;;;;;;;;8355152;28;20024;-59
2022/08/25 16:38:12;;;;;;;2.58;2.38;;;;;;;;;;8356955;28;20155;-59
2022/08/25 16:42:12;;;;;;;3.70;2.40;;;;;;;;;;8356878;28;20107;-59
2022/08/25 16:46:13;;;;;;;3.50;2.30;;;;;;;;;;8355840;28;20573;-59
2022/08/25 16:50:14;;;;;;;2.60;2.40;;;;;;;;;;8356862;28;20032;-59
2022/08/25 16:58:33;;;;;;;2.83;2.50;;;;;;;;;;8354333;28;20032;-59
2022/08/25 17:02:33;;;;;;;2.60;2.40;;;;;;;;;;8355380;28;20763;-59
2022/08/25 17:06:35;;;;;;;2.60;2.40;;;;;;;;;;8349640;28;20051;-59
2022/08/25 17:10:39;;;;;;;4.03;2.60;;;;;;;;;;8355733;28;20047;-59
2022/08/25 17:14:39;;;;;;;3.00;2.70;;;;;;;;;;8354688;28;20028;-59
2022/08/25 17:18:39;;;;;;;2.67;2.47;;;;;;;;;;8353243;28;20068;-59
2022/08/25 17:22:42;;;;;;;3.33;2.80;;;;;;;;;;8353626;28;20023;-60
2022/08/25 17:26:44;;;;;;;2.85;2.65;;;;;;;;;;8356404;28;20628;-59
2022/08/25 17:30:45;;;;;;;3.45;2.50;;;;;;;;;;8354513;28;20032;-59
2022/08/25 17:34:45;;;;;;;3.63;2.65;;;;;;;;;;8356384;28;20036;-59
2022/08/25 17:38:45;;;;;;;2.55;2.20;;;;;;;;;;8358781;28;20099;-59
2022/08/25 17:42:46;;;;;;;3.00;2.40;;;;;;;;;;8356161;28;20332;-58
2022/08/25 17:46:46;;;;;;;2.83;2.60;;;;;;;;;;8357334;28;20040;-59
2022/08/25 17:50:46;;;;;;;2.70;2.43;;;;;;;;;;8355674;28;20039;-59
2022/08/25 17:54:46;;;;;;;3.35;2.40;;;;;;;;;;8355157;28;20479;-60
2022/08/25 17:58:47;;;;;;;5.28;2.30;;;;;;;;;;8355845;28;20058;-59
2022/08/25 18:02:47;;;;;;;3.38;2.30;;;;;;;;;;8354690;28;20032;-59
2022/08/25 18:06:47;;;;;;;2.63;2.23;;;;;;;;;;8356180;28;20027;-58
2022/08/25 18:10:50;;;;;;;2.50;2.30;;;;;;;;;;8352823;28;20375;-59
2022/08/25 18:14:50;;;;;;;2.60;2.40;;;;;;;;;;8352671;28;20029;-58
2022/08/25 18:18:52;;;;;;;2.60;2.40;;;;;;;;;;8349554;28;20151;-58
2022/08/25 18:22:53;;;;;;;2.83;2.30;;;;;;;;;;8352053;28;20444;-58
2022/08/25 18:26:53;;;;;;;2.70;2.50;;;;;;;;;;8351128;28;20055;-59
2022/08/25 18:30:54;;;;;;;6.00;2.30;;;;;;;;;;8348956;28;21011;-58
2022/08/25 18:34:54;;;;;;;2.55;2.35;;;;;;;;;;8352783;28;20043;-60
2022/08/25 18:43:13;;;;;;;2.78;2.42;;;;;;;;;;8352700;28;20023;-58
2022/08/25 18:47:13;;;;;;;2.47;2.20;;;;;;;;;;8349108;28;20243;-58
2022/08/25 18:51:14;;;;;;;9.52;2.63;;;;;;;;;;8349469;28;20016;-58
2022/08/25 18:55:14;;;;;;;5.63;2.67;;;;;;;;;;8352255;28;20032;-59
2022/08/25 18:59:14;;;;;;;6.13;2.70;;;;;;;;;;8350210;28;20141;-59
2022/08/25 19:03:15;;;;;;;5.75;2.60;;;;;;;;;;8348748;28;20042;-59
2022/08/25 19:07:15;;;;;;;4.63;2.70;;;;;;;;;;8350098;28;20551;-59
2022/08/25 19:11:17;;;;;;;4.57;2.83;;;;;;;;;;8356281;28;20119;-58
2022/08/25 19:15:18;;;;;;;4.50;3.10;;;;;;;;;;8350883;28;20472;-60
2022/08/25 19:19:18;;;;;;;4.47;2.92;;;;;;;;;;8350767;28;20479;-59
2022/08/25 19:23:18;;;;;;;4.07;3.00;;;;;;;;;;8349547;28;20148;-59
2022/08/25 19:27:18;;;;;;;7.47;3.20;;;;;;;;;;8349809;28;20086;-58
2022/08/25 19:31:20;;;;;;;6.18;2.70;;;;;;;;;;8348881;28;20069;-58
2022/08/25 19:35:24;;;;;;;9.90;2.88;;;;;;;;;;8341636;28;20867;-58
2022/08/25 19:39:24;;;;;;;7.72;2.85;;;;;;;;;;8346614;28;20024;-58
2022/08/25 19:43:25;;;;;;;14.88;2.92;;;;;;;;;;8344800;28;20035;-58
2022/08/25 19:47:26;;;;;;;8.82;2.97;;;;;;;;;;8345799;28;20032;-58
2022/08/25 19:51:27;;;;;;;12.43;3.33;;;;;;;;;;8344677;28;20036;-58
2022/08/25 19:55:27;;;;;;;9.57;3.15;;;;;;;;;;8344183;28;20405;-59
2022/08/25 19:59:30;;;;;;;6.00;2.90;;;;;;;;;;8344769;28;20021;-58
2022/08/25 20:03:30;;;;;;;5.35;3.50;;;;;;;;;;8343347;28;20067;-59
2022/08/25 20:07:30;;;;;;;4.80;3.13;;;;;;;;;;8345252;28;20056;-58
2022/08/25 20:11:32;;;;;;;7.13;3.05;;;;;;;;;;8346790;28;20048;-58
2022/08/25 20:15:32;;;;;;;5.57;3.08;;;;;;;;;;8348159;28;20707;-58
2022/08/25 20:19:32;;;;;;;8.07;2.90;;;;;;;;;;8347075;28;20441;-58
2022/08/25 20:27:53;;;;;;;7.03;2.97;;;;;;;;;;8360133;28;20027;-57
2022/08/25 20:31:53;;;;;;;4.70;3.05;;;;;;;;;;8359476;28;20051;-59
2022/08/25 20:35:54;;;;;;;7.28;3.38;;;;;;;;;;8360949;28;20063;-58
2022/08/25 20:39:54;;;;;;;4.93;2.97;;;;;;;;;;8361219;28;20022;-58
2022/08/25 20:43:55;;;;;;;8.65;3.05;;;;;;;;;;8362612;28;20078;-58
2022/08/25 20:47:55;;;;;;;10.68;3.00;;;;;;;;;;8357780;28;20056;-58
2022/08/25 20:51:55;;;;;;;4.90;2.63;;;;;;;;;;8353232;28;20721;-60
2022/08/25 20:55:56;;;;;;;5.70;3.20;;;;;;;;;;8354358;28;20028;-58
2022/08/25 20:59:57;;;;;;;4.93;2.90;;;;;;;;;;8355377;28;20035;-58
2022/08/25 21:03:57;;;;;;;4.15;3.00;;;;;;;;;;8351351;28;20050;-58
2022/08/25 21:07:58;;;;;;;3.70;2.97;;;;;;;;;;8352676;28;20029;-58
2022/08/25 21:11:58;;;;;;;4.70;2.97;;;;;;;;;;8355968;28;20465;-58
2022/08/25 21:16:02;;;;;;;6.83;2.57;;;;;;;;;;8353776;28;20534;-58
2022/08/25 21:20:03;;;;;;;3.97;2.80;;;;;;;;;;8360357;28;20378;-58
2022/08/25 21:24:03;;;;;;;3.03;2.40;;;;;;;;;;8360441;28;20032;-58
2022/08/25 21:28:03;;;;;;;3.20;2.90;;;;;;;;;;8361020;28;20071;-58
2022/08/25 21:32:04;;;;;;;2.92;2.72;;;;;;;;;;8360307;28;20360;-58
2022/08/25 21:36:09;;;;;;;3.10;2.75;;;;;;;;;;8362540;28;20050;-58
2022/08/25 21:40:09;;;;;;;3.33;2.75;;;;;;;;;;8355805;28;20028;-58
2022/08/25 21:44:10;;;;;;;3.63;2.77;;;;;;;;;;8352480;28;20111;-58
2022/08/25 21:48:10;;;;;;;4.15;2.75;;;;;;;;;;8351487;28;20263;-58
2022/08/25 21:52:10;;;;;;;2.97;2.67;;;;;;;;;;8350877;28;20345;-58
2022/08/25 21:56:14;;;;;;;5.13;2.83;;;;;;;;;;8351787;28;20043;-58
2022/08/25 22:00:15;;;;;;;2.90;2.70;;;;;;;;;;8351403;28;20727;-58
2022/08/25 22:04:15;;;;;;;10.40;3.30;;;;;;;;;;8352222;28;20023;-58
2022/08/25 22:08:15;;;;;;;2.92;2.63;;;;;;;;;;8350750;28;20032;-57
2022/08/25 22:12:17;;;;;;;5.53;2.97;;;;;;;;;;8351935;28;20515;-58
2022/08/25 22:16:18;;;;;;;3.40;2.83;;;;;;;;;;8348481;28;20049;-58
2022/08/25 22:20:18;;;;;;;4.05;2.97;;;;;;;;;;8350696;28;20970;-58
2022/08/25 22:24:19;;;;;;;4.32;3.05;;;;;;;;;;8351033;28;20107;-58
2022/08/25 22:28:20;;;;;;;5.60;3.08;;;;;;;;;;8351157;28;20035;-58
2022/08/25 22:32:20;;;;;;;4.60;2.88;;;;;;;;;;8350300;28;20043;-58
2022/08/25 22:36:23;;;;;;;3.03;2.75;;;;;;;;;;8351881;28;20091;-58
2022/08/25 22:40:23;;;;;;;7.80;2.65;;;;;;;;;;8350534;28;20397;-57
2022/08/25 22:44:24;;;;;;;2.97;2.77;;;;;;;;;;8349435;28;20051;-58
2022/08/25 22:48:24;;;;;;;3.13;2.75;;;;;;;;;;8350158;28;20278;-58
2022/08/25 22:52:25;;;;;;;3.47;2.95;;;;;;;;;;8349932;28;20013;-58
2022/08/25 22:56:30;;;;;;;3.00;2.80;;;;;;;;;;8351236;28;20572;-58
2022/08/25 23:00:30;;;;;;;3.10;2.80;;;;;;;;;;8347016;28;20036;-58
2022/08/25 23:04:33;;;;;;;4.25;2.80;;;;;;;;;;8350246;28;20415;-57
2022/08/25 23:08:33;;;;;;;3.17;2.88;;;;;;;;;;8350740;28;20024;-58
2022/08/25 23:12:33;;;;;;;4.22;2.70;;;;;;;;;;8349215;28;20058;-58
2022/08/25 23:16:34;;;;;;;4.15;3.00;;;;;;;;;;8348599;28;20622;-58
2022/08/25 23:24:53;;;;;;;3.03;2.80;;;;;;;;;;8350597;28;20162;-58
2022/08/25 23:28:53;;;;;;;2.97;2.70;;;;;;;;;;8349233;28;20679;-58
2022/08/25 23:32:53;;;;;;;6.57;2.95;;;;;;;;;;8349580;28;20511;-58
2022/08/25 23:36:54;;;;;;;3.53;3.22;;;;;;;;;;8348767;28;20024;-58
2022/08/25 23:40:54;;;;;;;3.28;2.70;;;;;;;;;;8349912;28;20025;-58
2022/08/25 23:44:55;;;;;;;4.28;3.35;;;;;;;;;;8349644;28;20088;-58
2022/08/25 23:48:55;;;;;;;4.47;3.10;;;;;;;;;;8348016;28;20047;-57
2022/08/25 23:52:55;;;;;;;3.80;3.40;;;;;;;;;;8348532;28;20120;-58
2022/08/25 23:56:56;;;;;;;3.83;3.53;;;;;;;;;;8355977;28;20063;-58
